Time;durP1;ratioP1;P1;durP2;ratioP2;P2;SDS_P1;SDS_P2;PMS_P1;PMS_P2;Temp;Humidity;BMP_temperature;BMP_pressure;BME280_temperature;BME280_humidity;BME280_pressure;Samples;Min_cycle;Max_cycle;Signal;HPM_P1;HPM_P2
2022/12/02 00:01:49;;;;;;;5.60;5.10;;;;;;;2.84;100.00;102284.28;6007364;23;20531;-70
2022/12/02 00:04:19;;;;;;;5.10;4.15;;;;;;;2.83;100.00;102277.34;5979555;23;20022;-71
2022/12/02 00:06:46;;;;;;;7.38;6.88;;;;;;;2.35;100.00;102205.41;6027116;23;20035;-72
2022/12/02 00:09:21;;;;;;;11.93;5.22;;;;;;;2.66;100.00;102262.59;6011170;23;20030;-70
2022/12/02 00:11:48;;;;;;;6.20;5.70;;;;;;;2.17;100.00;102166.44;6039600;23;20514;-71
2022/12/02 00:14:21;;;;;;;11.63;6.28;;;;;;;2.80;100.00;102266.13;6000390;23;20039;-70
2022/12/02 00:16:48;;;;;;;11.63;8.20;;;;;;;2.76;100.00;102260.91;6032812;23;20094;-71
2022/12/02 00:19:15;;;;;;;9.65;7.18;;;;;;;2.45;100.00;102216.69;6012993;23;20422;-70
2022/12/02 00:21:41;;;;;;;17.35;6.53;;;;;;;2.66;100.00;102239.25;6009305;23;20451;-71
2022/12/02 00:24:08;;;;;;;6.93;6.30;;;;;;;2.39;100.00;102201.97;6007670;23;20362;-71
2022/12/02 00:26:34;;;;;;;5.68;4.95;;;;;;;2.38;100.00;102209.72;6030595;23;20076;-70
2022/12/02 00:29:00;;;;;;;7.00;6.15;;;;;;;2.74;100.00;102258.31;6004570;23;20275;-71
2022/12/02 00:31:27;;;;;;;7.63;5.82;;;;;;;2.73;100.00;102241.03;6037773;23;20015;-70
2022/12/02 00:33:55;;;;;;;7.93;7.03;;;;;;;2.33;100.00;102193.31;6003892;23;20035;-70
2022/12/02 00:36:21;;;;;;;10.35;7.55;;;;;;;2.75;100.00;102259.19;6038034;23;20122;-71
2022/12/02 00:38:48;;;;;;;5.35;4.90;;;;;;;2.47;100.00;102216.72;5980337;23;20480;-71
2022/12/02 00:41:14;;;;;;;10.32;6.03;;;;;;;2.59;100.00;102237.50;6041810;23;20077;-71
2022/12/02 00:46:45;;;;;;;7.93;4.55;;;;;;;2.44;100.00;102201.13;5964132;24;20023;-72
2022/12/02 00:49:14;;;;;;;8.40;6.70;;;;;;;2.66;100.00;102244.44;5937956;24;20015;-71
2022/12/02 00:51:43;;;;;;;6.65;6.05;;;;;;;2.66;100.00;102241.84;5991451;23;20307;-71
2022/12/02 00:54:11;;;;;;;8.45;5.70;;;;;;;2.73;100.00;102246.22;6000735;23;20019;-70
2022/12/02 00:56:39;;;;;;;14.07;6.85;;;;;;;2.64;100.00;102243.56;6018366;23;20376;-71
2022/12/02 00:59:05;;;;;;;6.75;5.88;;;;;;;2.59;100.00;102253.06;5991753;23;20026;-70
2022/12/02 01:01:34;;;;;;;10.77;5.40;;;;;;;2.58;100.00;102244.38;6012118;23;20095;-70
2022/12/02 01:04:01;;;;;;;6.57;5.97;;;;;;;2.47;100.00;102221.88;5985676;23;20483;-71
2022/12/02 01:06:27;;;;;;;11.07;6.05;;;;;;;2.52;100.00;102238.31;6013058;23;20014;-72
2022/12/02 01:08:54;;;;;;;5.32;4.65;;;;;;;2.57;100.00;102232.31;6004715;23;20523;-71
2022/12/02 01:11:20;;;;;;;8.75;7.25;;;;;;;2.55;100.00;102240.94;6045014;23;20027;-71
2022/12/02 01:13:47;;;;;;;6.10;5.57;;;;;;;2.52;100.00;102233.13;6005551;23;20015;-70
2022/12/02 01:16:13;;;;;;;5.93;5.43;;;;;;;2.22;100.00;102195.81;6012010;23;20282;-71
2022/12/02 01:18:40;;;;;;;6.28;5.03;;;;;;;2.53;100.00;102240.91;5965912;23;20628;-71
2022/12/02 01:21:06;;;;;;;5.35;4.93;;;;;;;2.52;100.00;102246.94;6030578;23;20019;-71
2022/12/02 01:23:33;;;;;;;14.05;5.65;;;;;;;2.40;100.00;102221.81;6010989;23;20104;-71
2022/12/02 01:25:59;;;;;;;7.55;6.13;;;;;;;2.50;100.00;102237.44;6003948;23;20014;-72
2022/12/02 01:28:26;;;;;;;9.85;5.57;;;;;;;2.50;100.00;102229.66;6010103;23;20101;-70
2022/12/02 01:30:52;;;;;;;23.83;7.13;;;;;;;2.52;100.00;102234.00;6037959;23;20384;-71
2022/12/02 01:33:19;;;;;;;9.73;6.00;;;;;;;2.48;100.00;102229.66;5983113;23;20008;-72
2022/12/02 01:35:45;;;;;;;6.20;4.85;;;;;;;2.48;100.00;102236.56;6008385;23;20014;-71
2022/12/02 01:38:12;;;;;;;6.15;5.55;;;;;;;2.48;100.00;102227.06;5982530;23;20015;-70
2022/12/02 01:40:38;;;;;;;7.82;7.03;;;;;;;2.45;100.00;102228.78;6041516;23;20026;-71
2022/12/02 01:43:05;;;;;;;8.85;6.40;;;;;;;2.46;100.00;102243.47;5996170;23;20249;-70
2022/12/02 01:45:32;;;;;;;13.77;6.28;;;;;;;2.47;100.00;102234.84;6007003;23;20030;-71
2022/12/02 01:48:02;;;;;;;6.60;6.00;;;;;;;2.48;100.00;102232.25;5957717;24;20023;-71
2022/12/02 01:50:30;;;;;;;6.38;5.70;;;;;;;2.48;100.00;102240.00;5972885;23;20030;-70
2022/12/02 01:52:57;;;;;;;5.15;4.75;;;;;;;2.50;100.00;102232.25;6011107;23;20021;-71
2022/12/02 01:55:25;;;;;;;4.50;4.15;;;;;;;2.52;100.00;102222.75;5968877;23;20023;-71
2022/12/02 01:57:52;;;;;;;7.63;5.22;;;;;;;2.53;100.00;102227.09;6002633;23;20084;-71
2022/12/02 02:00:19;;;;;;;5.10;4.65;;;;;;;2.17;100.00;102156.06;5981279;23;20015;-71
2022/12/02 02:02:46;;;;;;;4.57;4.18;;;;;;;2.10;100.00;102144.78;6013030;23;20030;-70
2022/12/02 02:05:18;;;;;;;4.97;4.55;;;;;;;1.33;100.00;102019.22;5984995;23;20015;-71
2022/12/02 02:07:48;;;;;;;5.55;4.95;;;;;;;2.45;100.00;102210.66;6008827;23;20362;-71
2022/12/02 02:10:15;;;;;;;8.48;5.55;;;;;;;2.23;100.00;102179.44;5976477;23;20055;-71
2022/12/02 02:12:44;;;;;;;8.13;4.78;;;;;;;2.23;100.00;102191.50;6003028;23;20040;-70
2022/12/02 02:15:12;;;;;;;6.15;5.63;;;;;;;2.53;100.00;102225.38;5974872;23;20492;-70
2022/12/02 02:17:39;;;;;;;6.07;5.13;;;;;;;2.25;100.00;102184.63;6012749;23;20455;-70
2022/12/02 02:20:10;;;;;;;7.88;5.70;;;;;;;2.53;100.00;102230.56;5979788;23;20488;-71
2022/12/02 02:23:05;;;;;;;8.65;5.20;;;;;;;1.63;100.00;102069.44;6018225;23;20015;-71
2022/12/02 02:25:41;;;;;;;14.27;6.57;;;;;;;2.08;100.00;102156.00;5967780;23;20019;-71
2022/12/02 02:28:08;;;;;;;8.55;4.95;;;;;;;2.40;100.00;102195.91;6010285;23;20037;-71
2022/12/02 02:30:36;;;;;;;11.90;6.22;;;;;;;2.32;100.00;102170.84;5984744;23;20090;-71
2022/12/02 02:33:05;;;;;;;4.68;4.38;;;;;;;2.55;100.00;102208.09;6010232;23;20023;-72
2022/12/02 02:35:34;;;;;;;6.40;5.53;;;;;;;2.14;100.00;102122.38;5983087;23;20039;-72
2022/12/02 02:38:01;;;;;;;5.72;5.22;;;;;;;2.37;100.00;102157.06;6009815;23;20133;-71
2022/12/02 02:40:28;;;;;;;10.93;4.20;;;;;;;2.08;100.00;102106.81;5979385;23;20055;-71
2022/12/02 02:42:59;;;;;;;4.38;4.05;;;;;;;2.56;100.00;102193.41;6014290;23;20035;-71
2022/12/02 02:45:29;;;;;;;8.02;5.55;;;;;;;2.32;100.00;102168.25;5979956;23;20675;-70
2022/12/02 02:47:56;;;;;;;5.28;4.88;;;;;;;2.15;100.00;102122.41;6005277;23;20373;-70
2022/12/02 02:50:23;;;;;;;6.32;5.70;;;;;;;2.55;100.00;102191.69;5974332;23;20055;-71
2022/12/02 02:52:50;;;;;;;7.30;6.25;;;;;;;2.55;100.00;102196.88;6012972;23;20465;-71
2022/12/02 02:55:21;;;;;;;8.93;4.20;;;;;;;2.54;100.00;102188.22;5954133;23;20019;-71
2022/12/02 02:57:47;;;;;;;5.72;4.75;;;;;;;2.53;100.00;102181.31;6015324;23;20273;-71
2022/12/02 03:00:16;;;;;;;13.10;5.18;;;;;;;2.34;100.00;102148.38;5976222;23;20050;-70
2022/12/02 03:02:46;;;;;;;8.27;5.45;;;;;;;2.55;100.00;102174.41;6015129;23;20027;-71
2022/12/02 03:05:13;;;;;;;4.97;4.68;;;;;;;2.24;100.00;102126.75;5982245;23;20024;-72
2022/12/02 03:07:40;;;;;;;13.40;5.40;;;;;;;2.53;100.00;102181.31;5985378;23;20102;-71
2022/12/02 03:10:08;;;;;;;4.63;4.32;;;;;;;2.02;100.00;102081.75;5985366;23;20082;-71
2022/12/02 03:12:34;;;;;;;6.22;5.68;;;;;;;2.56;100.00;102175.28;5979700;23;20227;-70
2022/12/02 03:15:02;;;;;;;3.75;3.55;;;;;;;2.47;100.00;102165.75;5977215;23;20227;-70
2022/12/02 03:17:29;;;;;;;5.97;5.45;;;;;;;2.57;100.00;102182.22;6010761;23;20015;-70
2022/12/02 03:19:55;;;;;;;10.00;5.20;;;;;;;0.90;100.00;101899.97;5988869;23;20087;-70
2022/12/02 03:22:22;;;;;;;6.00;4.85;;;;;;;2.34;100.00;102149.25;6003546;23;20027;-70
2022/12/02 03:24:50;;;;;;;5.90;5.47;;;;;;;2.53;100.00;102168.38;5976552;23;20007;-70
2022/12/02 03:27:17;;;;;;;4.40;4.05;;;;;;;2.58;100.00;102173.56;5992155;23;20020;-70
2022/12/02 03:29:44;;;;;;;7.50;5.68;;;;;;;2.31;100.00;102145.81;5958881;23;20049;-70
2022/12/02 03:32:11;;;;;;;4.15;3.90;;;;;;;2.57;100.00;102180.47;6004900;23;20020;-71
2022/12/02 03:34:40;;;;;;;7.82;5.13;;;;;;;2.62;100.00;102174.44;5972459;23;20032;-71
2022/12/02 03:37:07;;;;;;;5.18;4.35;;;;;;;2.57;100.00;102164.94;6003176;23;20746;-71
2022/12/02 03:39:34;;;;;;;7.20;4.45;;;;;;;2.59;100.00;102160.63;5975312;23;20091;-71
2022/12/02 03:42:01;;;;;;;6.68;5.63;;;;;;;2.56;100.00;102155.41;6003173;23;20013;-70
2022/12/02 03:44:28;;;;;;;5.20;4.80;;;;;;;2.15;100.00;102080.97;5974199;23;20019;-72
2022/12/02 03:46:54;;;;;;;11.73;5.82;;;;;;;2.57;100.00;102148.50;5997579;23;20037;-70
2022/12/02 03:49:21;;;;;;;4.60;4.30;;;;;;;2.33;100.00;102106.09;6008934;23;20019;-72
2022/12/02 03:51:48;;;;;;;4.35;4.03;;;;;;;2.55;100.00;102132.97;6035906;23;20023;-71
2022/12/02 03:54:15;;;;;;;7.25;5.63;;;;;;;2.30;100.00;102097.44;6009289;23;20023;-72
2022/12/02 03:56:42;;;;;;;5.68;4.60;;;;;;;2.32;100.00;102099.16;6019842;23;20038;-71
2022/12/02 03:59:10;;;;;;;4.72;4.38;;;;;;;2.26;100.00;102087.91;6010968;23;20035;-71
2022/12/02 04:01:37;;;;;;;9.95;6.13;;;;;;;2.47;100.00;102113.91;6035243;23;20112;-72
2022/12/02 04:04:03;;;;;;;8.02;6.55;;;;;;;2.22;100.00;102070.63;6009977;23;20492;-70
2022/12/02 04:06:30;;;;;;;4.95;4.47;;;;;;;2.42;100.00;102118.19;6044608;23;20011;-71
2022/12/02 04:08:57;;;;;;;4.30;3.95;;;;;;;1.71;100.00;102008.25;5984983;23;20281;-71
2022/12/02 04:11:23;;;;;;;7.15;4.95;;;;;;;2.60;100.00;102140.72;6037323;23;20030;-71
2022/12/02 04:13:50;;;;;;;5.43;5.07;;;;;;;2.58;100.00;102127.75;6007561;23;20408;-71
2022/12/02 04:16:16;;;;;;;5.82;5.47;;;;;;;2.47;100.00;102111.31;6039576;23;20021;-71
2022/12/02 04:18:43;;;;;;;6.05;5.35;;;;;;;2.47;100.00;102110.47;6011515;23;20050;-72
2022/12/02 04:21:09;;;;;;;5.05;4.55;;;;;;;2.27;100.00;102079.28;6034050;23;20615;-71
2022/12/02 04:23:35;;;;;;;6.20;5.65;;;;;;;2.58;100.00;102125.19;5983669;23;20023;-71
2022/12/02 04:26:02;;;;;;;6.55;5.25;;;;;;;2.39;100.00;102095.75;6017290;23;20234;-71
2022/12/02 04:28:28;;;;;;;16.50;6.75;;;;;;;2.22;100.00;102057.69;6009243;23;20279;-71
2022/12/02 04:30:55;;;;;;;4.90;4.60;;;;;;;2.26;100.00;102070.63;6027569;23;20015;-71
2022/12/02 04:33:21;;;;;;;5.93;5.53;;;;;;;2.54;100.00;102136.38;6004723;23;20035;-71
2022/12/02 04:35:48;;;;;;;5.60;5.20;;;;;;;2.51;100.00;102126.03;6036933;23;20320;-72
2022/12/02 04:38:14;;;;;;;8.27;4.35;;;;;;;2.21;100.00;102068.91;6007152;23;20043;-70
2022/12/02 04:40:41;;;;;;;6.25;5.75;;;;;;;2.55;100.00;102125.19;6017161;23;20034;-71
2022/12/02 04:43:07;;;;;;;11.82;5.32;;;;;;;2.54;100.00;102128.63;6014350;23;20023;-71
2022/12/02 04:45:34;;;;;;;5.93;4.57;;;;;;;2.58;100.00;102129.50;6042460;23;20018;-70
2022/12/02 04:48:00;;;;;;;5.03;4.65;;;;;;;2.59;100.00;102146.78;5999290;23;20027;-71
2022/12/02 04:50:26;;;;;;;6.18;5.40;;;;;;;1.68;100.00;101995.28;6027183;23;20089;-71
2022/12/02 04:52:53;;;;;;;21.48;5.90;;;;;;;2.54;100.00;102123.44;6002112;23;20027;-70
2022/12/02 04:55:19;;;;;;;15.95;5.57;;;;;;;2.08;100.00;102037.75;6030874;23;20011;-71
2022/12/02 04:57:46;;;;;;;5.60;5.20;;;;;;;2.23;100.00;102056.84;6016765;23;20472;-71
2022/12/02 05:00:13;;;;;;;13.45;5.45;;;;;;;2.53;100.00;102123.44;6024017;23;20090;-71
2022/12/02 05:02:39;;;;;;;6.88;5.65;;;;;;;2.51;100.00;102115.66;6016882;23;20163;-71
2022/12/02 05:05:08;;;;;;;12.95;4.35;;;;;;;2.53;100.00;102110.50;6035145;23;20031;-70
2022/12/02 05:07:35;;;;;;;5.28;4.88;;;;;;;2.54;100.00;102104.44;5988178;23;20037;-71
2022/12/02 05:10:02;;;;;;;4.38;4.10;;;;;;;2.19;100.00;102045.59;6007603;23;20333;-71
2022/12/02 05:12:29;;;;;;;11.98;5.47;;;;;;;2.55;100.00;102098.41;5989346;23;20014;-71
2022/12/02 05:14:55;;;;;;;9.73;6.72;;;;;;;2.53;100.00;102092.34;6032711;23;20011;-70
2022/12/02 05:17:21;;;;;;;6.32;5.38;;;;;;;2.54;100.00;102087.16;6014111;23;20378;-72
2022/12/02 05:19:48;;;;;;;7.43;5.68;;;;;;;2.18;100.00;102021.38;6029922;23;20011;-71
2022/12/02 05:22:14;;;;;;;6.55;4.88;;;;;;;2.50;100.00;102098.38;6009064;23;20023;-71
2022/12/02 05:24:41;;;;;;;6.47;5.10;;;;;;;2.52;100.00;102091.47;6007518;23;20337;-71
2022/12/02 05:27:08;;;;;;;18.27;6.55;;;;;;;2.54;100.00;102097.53;6006247;23;20026;-72
2022/12/02 05:29:34;;;;;;;10.20;5.05;;;;;;;2.55;100.00;102091.50;6033431;23;20432;-71
2022/12/02 05:32:01;;;;;;;6.93;4.93;;;;;;;2.26;100.00;102052.50;6004142;23;20063;-71
2022/12/02 05:34:27;;;;;;;22.70;6.20;;;;;;;2.30;100.00;102067.19;6044686;23;20050;-71
2022/12/02 05:36:53;;;;;;;7.95;6.20;;;;;;;2.22;100.00;102060.25;5991977;23;20162;-71
2022/12/02 05:39:20;;;;;;;7.80;6.18;;;;;;;2.17;100.00;102040.38;6049511;23;20452;-71
2022/12/02 05:41:47;;;;;;;5.10;4.80;;;;;;;2.53;100.00;102092.34;6009701;23;20023;-71
2022/12/02 05:44:22;;;;;;;5.70;5.20;;;;;;;2.28;100.00;102047.34;6034311;23;20519;-71
2022/12/02 05:46:49;;;;;;;5.43;5.10;;;;;;;2.54;100.00;102091.47;6002346;23;20029;-71
2022/12/02 05:49:19;;;;;;;5.13;4.72;;;;;;;2.53;100.00;102094.94;6039746;23;20555;-71
2022/12/02 05:51:57;;;;;;;9.13;5.93;;;;;;;2.50;100.00;102093.19;6000722;23;20042;-71
2022/12/02 05:54:25;;;;;;;11.00;7.65;;;;;;;2.53;100.00;102097.53;6033752;23;20375;-71
2022/12/02 05:56:52;;;;;;;8.73;6.90;;;;;;;2.53;100.00;102102.72;6009042;23;20043;-71
2022/12/02 05:59:20;;;;;;;9.77;6.10;;;;;;;2.47;100.00;102081.97;6035296;23;20031;-71
2022/12/02 06:01:56;;;;;;;6.18;5.60;;;;;;;2.51;100.00;102089.75;6010111;23;20018;-70
2022/12/02 06:04:26;;;;;;;16.13;6.10;;;;;;;2.51;100.00;102073.34;6035326;23;20017;-71
2022/12/02 06:06:54;;;;;;;4.43;4.15;;;;;;;2.52;100.00;102091.47;6013727;23;20047;-72
2022/12/02 06:09:27;;;;;;;6.93;5.72;;;;;;;2.54;100.00;102073.34;6038611;23;20018;-72
2022/12/02 06:11:54;;;;;;;22.30;5.97;;;;;;;2.57;100.00;102084.59;5987223;23;20035;-71
2022/12/02 06:14:23;;;;;;;4.65;4.25;;;;;;;2.54;100.00;102079.38;6034369;23;20022;-72
2022/12/02 06:16:56;;;;;;;6.63;4.75;;;;;;;2.24;100.00;102024.88;5979657;23;20055;-72
2022/12/02 06:19:27;;;;;;;6.78;5.90;;;;;;;2.28;100.00;102040.44;6033653;23;20061;-71
2022/12/02 06:22:00;;;;;;;4.15;3.88;;;;;;;2.58;100.00;102078.53;5994846;23;20050;-71
2022/12/02 06:24:30;;;;;;;5.05;4.65;;;;;;;2.57;100.00;102069.03;6035794;23;20535;-71
2022/12/02 06:26:59;;;;;;;10.75;4.85;;;;;;;2.59;100.00;102072.50;5998324;23;20227;-71
2022/12/02 06:29:29;;;;;;;6.47;5.72;;;;;;;2.57;100.00;102073.38;6015300;23;20085;-72
2022/12/02 06:31:57;;;;;;;6.28;5.40;;;;;;;2.30;100.00;102024.91;6001031;23;20031;-71
2022/12/02 06:34:37;;;;;;;6.95;5.68;;;;;;;2.33;100.00;102038.72;6032448;23;20030;-71
2022/12/02 06:37:29;;;;;;;4.60;4.28;;;;;;;2.60;100.00;102078.53;6003700;23;20030;-72
2022/12/02 06:39:58;;;;;;;5.90;5.00;;;;;;;2.08;100.00;101987.69;6034890;23;20465;-70
2022/12/02 06:42:44;;;;;;;4.88;4.47;;;;;;;2.58;100.00;102078.53;6010862;23;20093;-71
2022/12/02 06:45:29;;;;;;;8.63;5.35;;;;;;;2.58;100.00;102072.47;6029767;23;20090;-71
2022/12/02 06:48:00;;;;;;;12.60;5.93;;;;;;;2.39;100.00;102045.66;5998988;23;20102;-70
2022/12/02 06:50:31;;;;;;;7.07;5.00;;;;;;;2.57;100.00;102071.63;6031818;23;20499;-70
2022/12/02 06:53:36;;;;;;;12.02;6.20;;;;;;;2.58;100.00;102082.84;6004369;23;20040;-70
2022/12/02 06:56:04;;;;;;;14.50;5.30;;;;;;;2.59;100.00;102079.41;5988327;23;20091;-70
2022/12/02 06:58:38;;;;;;;5.90;5.25;;;;;;;2.16;100.00;102010.16;6007919;23;20017;-70
2022/12/02 07:01:41;;;;;;;5.93;5.47;;;;;;;2.58;100.00;102082.84;6000048;23;20491;-71
2022/12/02 07:04:08;;;;;;;11.60;4.80;;;;;;;2.56;100.00;102079.38;5971831;23;20047;-71
2022/12/02 07:06:38;;;;;;;5.38;4.95;;;;;;;2.21;100.00;102017.09;6034283;23;20011;-71
2022/12/02 07:09:13;;;;;;;13.38;6.03;;;;;;;1.53;100.00;101908.97;5997066;23;20027;-71
2022/12/02 07:11:49;;;;;;;10.43;6.63;;;;;;;2.25;100.00;102014.53;6034763;23;20011;-70
2022/12/02 07:14:40;;;;;;;5.40;5.10;;;;;;;2.02;100.00;101982.50;5996759;23;20058;-70
2022/12/02 07:17:26;;;;;;;6.85;5.28;;;;;;;2.56;100.00;102071.63;6036696;23;20030;-71
2022/12/02 07:19:55;;;;;;;5.28;4.88;;;;;;;1.42;100.00;101884.75;6001879;23;20151;-70
2022/12/02 07:22:32;;;;;;;12.35;4.90;;;;;;;2.23;100.00;102012.81;6034881;23;20023;-72
2022/12/02 07:25:10;;;;;;;8.70;5.53;;;;;;;2.59;100.00;102072.50;5998798;23;20073;-74
2022/12/02 07:27:39;;;;;;;14.50;6.63;;;;;;;2.59;100.00;102066.47;6027163;23;20268;-73
2022/12/02 07:30:23;;;;;;;6.15;4.97;;;;;;;2.62;100.00;102086.31;5992561;23;20031;-74
2022/12/02 07:32:50;;;;;;;7.40;6.32;;;;;;;2.63;100.00;102072.53;6035153;23;20642;-75
2022/12/02 07:35:17;;;;;;;7.38;5.70;;;;;;;2.43;100.00;102050.00;5999640;23;20528;-74
2022/12/02 07:37:43;;;;;;;6.90;5.53;;;;;;;2.54;100.00;102058.66;6016307;23;20032;-74
2022/12/02 07:40:15;;;;;;;4.95;4.53;;;;;;;2.54;100.00;102056.06;5998075;23;20044;-75
2022/12/02 07:42:42;;;;;;;5.38;4.93;;;;;;;2.48;100.00;102053.44;6012143;23;20038;-75
2022/12/02 07:45:10;;;;;;;24.85;7.82;;;;;;;2.34;100.00;102024.91;6003438;23;20152;-74
2022/12/02 07:47:36;;;;;;;14.43;6.13;;;;;;;2.62;100.00;102071.63;6014436;23;20011;-73
2022/12/02 07:50:04;;;;;;;7.05;4.93;;;;;;;2.45;100.00;102045.69;5999288;23;20103;-76
2022/12/02 07:52:33;;;;;;;5.90;5.38;;;;;;;2.46;100.00;102043.94;6020045;23;20025;-77
2022/12/02 07:55:00;;;;;;;8.65;7.78;;;;;;;2.52;100.00;102049.16;6001953;23;20023;-75
2022/12/02 07:57:27;;;;;;;6.68;6.03;;;;;;;2.50;100.00;102066.41;6030249;23;20429;-74
2022/12/02 07:59:59;;;;;;;11.73;6.32;;;;;;;2.01;100.00;101960.06;5999075;23;20043;-74
2022/12/02 08:02:26;;;;;;;5.28;4.30;;;;;;;2.59;100.00;102061.28;6021791;23;20026;-74
2022/12/02 08:04:52;;;;;;;8.18;5.57;;;;;;;2.63;100.00;102062.16;6012131;23;20006;-75
2022/12/02 08:07:19;;;;;;;11.30;5.38;;;;;;;2.61;100.00;102064.72;6002360;23;20037;-74
2022/12/02 08:09:45;;;;;;;13.75;8.52;;;;;;;2.08;100.00;101970.44;6033995;23;20023;-74
2022/12/02 08:12:13;;;;;;;11.45;7.10;;;;;;;2.16;100.00;101980.81;5977252;23;20019;-73
2022/12/02 08:14:39;;;;;;;5.55;5.15;;;;;;;2.28;100.00;102009.34;5999758;23;20070;-73
2022/12/02 08:17:05;;;;;;;21.55;9.02;;;;;;;2.60;100.00;102060.41;6003881;23;20362;-73
2022/12/02 08:19:32;;;;;;;6.20;5.63;;;;;;;2.30;100.00;101996.41;6001056;23;20042;-75
2022/12/02 08:21:58;;;;;;;11.15;5.63;;;;;;;2.59;100.00;102054.34;5976611;23;20521;-75
2022/12/02 08:24:25;;;;;;;28.15;5.53;;;;;;;1.93;100.00;101931.56;5998649;23;20102;-75
2022/12/02 08:26:51;;;;;;;10.98;6.00;;;;;;;2.31;100.00;102005.91;6028434;23;20089;-75
2022/12/02 08:29:18;;;;;;;17.95;5.82;;;;;;;2.23;100.00;101982.56;5998729;23;20421;-75
2022/12/02 08:31:44;;;;;;;9.20;5.93;;;;;;;2.67;100.00;102049.19;6032059;23;20034;-74
2022/12/02 08:34:10;;;;;;;8.73;6.45;;;;;;;2.22;100.00;101975.66;6014825;23;20078;-74
2022/12/02 08:36:37;;;;;;;14.43;4.22;;;;;;;2.70;100.00;102053.50;6006279;23;20035;-72
2022/12/02 08:39:04;;;;;;;10.23;6.18;;;;;;;2.70;100.00;102051.78;6019510;23;20291;-74
2022/12/02 08:41:32;;;;;;;6.93;6.35;;;;;;;2.49;100.00;102015.47;6038455;23;20081;-73
2022/12/02 08:43:59;;;;;;;12.75;6.28;;;;;;;2.76;100.00;102054.38;6011037;23;20039;-73
2022/12/02 08:46:26;;;;;;;5.22;4.80;;;;;;;1.55;100.00;101846.88;6029861;23;20061;-74
2022/12/02 08:48:53;;;;;;;8.07;6.25;;;;;;;2.65;100.00;102039.69;6012208;23;20031;-75
2022/12/02 08:51:22;;;;;;;5.97;5.60;;;;;;;2.30;100.00;101955.81;6038402;23;20321;-75
2022/12/02 08:53:49;;;;;;;5.47;5.07;;;;;;;2.84;100.00;102049.22;6007345;23;20015;-75
2022/12/02 08:56:15;;;;;;;15.52;6.93;;;;;;;2.13;100.00;101927.28;6026541;23;20038;-74
2022/12/02 08:58:44;;;;;;;31.23;5.82;;;;;;;2.88;100.00;102042.31;5980421;23;20224;-74
2022/12/02 09:01:11;;;;;;;10.48;5.88;;;;;;;2.38;100.00;101980.00;6014478;23;20027;-74
2022/12/02 09:03:37;;;;;;;10.48;7.28;;;;;;;2.73;100.00;102059.56;5999339;23;20030;-74
2022/12/02 09:06:04;;;;;;;7.00;6.38;;;;;;;2.54;100.00;102035.31;6019628;23;20049;-73
2022/12/02 09:08:30;;;;;;;4.75;4.45;;;;;;;2.67;100.00;102050.94;6009041;23;20032;-75
2022/12/02 09:10:57;;;;;;;4.88;4.57;;;;;;;2.47;100.00;102024.97;6033853;23;20022;-74
2022/12/02 09:13:24;;;;;;;7.13;5.63;;;;;;;2.69;100.00;102054.41;6005423;23;20043;-74
2022/12/02 09:15:50;;;;;;;3.92;3.63;;;;;;;2.27;100.00;101992.09;6033800;23;20487;-75
2022/12/02 09:18:17;;;;;;;14.63;6.22;;;;;;;2.68;100.00;102061.28;6007170;23;20545;-75
2022/12/02 09:20:43;;;;;;;12.18;7.65;;;;;;;2.35;100.00;102013.69;6041003;23;20090;-75
2022/12/02 09:23:10;;;;;;;4.63;4.32;;;;;;;2.27;100.00;101983.47;6003300;23;20105;-74
2022/12/02 09:25:36;;;;;;;8.88;6.22;;;;;;;2.34;100.00;102026.63;6002664;23;20420;-74
2022/12/02 09:28:59;;;;;;;8.25;7.63;;;;;;;2.78;100.00;102069.94;5997447;23;20235;-75
2022/12/02 09:32:04;;;;;;;7.00;4.72;;;;;;;2.65;100.00;102037.97;6033494;23;20019;-76
2022/12/02 09:34:30;;;;;;;8.63;6.70;;;;;;;2.54;100.00;102012.00;6004663;23;20031;-74
2022/12/02 09:36:56;;;;;;;9.43;5.32;;;;;;;2.85;100.00;102047.50;6034086;23;20031;-75
2022/12/02 09:39:23;;;;;;;6.85;6.43;;;;;;;2.52;100.00;102005.94;6008651;23;20102;-73
2022/12/02 09:41:50;;;;;;;11.55;6.05;;;;;;;2.08;100.00;101933.31;6037065;23;20472;-74
2022/12/02 09:44:16;;;;;;;7.15;6.05;;;;;;;2.24;100.00;101949.75;6011602;23;20464;-74
2022/12/02 09:46:43;;;;;;;9.95;7.88;;;;;;;2.06;100.00;101924.69;6035530;23;20034;-76
2022/12/02 09:49:10;;;;;;;7.07;6.50;;;;;;;1.91;100.00;101897.88;5999646;23;20897;-74
2022/12/02 09:51:36;;;;;;;6.80;5.43;;;;;;;2.77;100.00;102043.16;6038009;23;20652;-75
2022/12/02 09:54:02;;;;;;;7.45;5.72;;;;;;;2.18;100.00;101948.00;6002130;23;20241;-74
2022/12/02 09:56:29;;;;;;;16.25;6.22;;;;;;;2.62;100.00;102022.38;6031215;23;20023;-73
2022/12/02 09:58:56;;;;;;;6.85;6.25;;;;;;;2.66;100.00;102024.13;6012961;23;20019;-77
2022/12/02 10:01:25;;;;;;;10.48;6.18;;;;;;;2.53;100.00;102004.25;6030443;23;20039;-75
2022/12/02 10:03:52;;;;;;;15.32;6.88;;;;;;;2.21;100.00;101927.31;6005673;23;20034;-76
2022/12/02 10:06:27;;;;;;;5.82;5.32;;;;;;;2.72;100.00;102020.69;6034519;23;20011;-74
2022/12/02 10:08:56;;;;;;;5.20;4.82;;;;;;;2.78;100.00;102031.91;6013758;23;20019;-75
2022/12/02 10:11:27;;;;;;;5.75;5.35;;;;;;;2.79;100.00;102030.22;6016538;23;20479;-74
2022/12/02 10:13:55;;;;;;;6.70;4.75;;;;;;;2.17;100.00;101923.00;6006691;23;20078;-75
2022/12/02 10:16:22;;;;;;;9.55;6.50;;;;;;;2.73;100.00;102031.06;6043200;23;20014;-75
2022/12/02 10:18:48;;;;;;;6.15;5.55;;;;;;;2.83;100.00;102044.91;6011805;23;20051;-75
2022/12/02 10:21:15;;;;;;;12.38;5.47;;;;;;;2.69;100.00;102006.00;6031681;23;20031;-73
2022/12/02 10:24:08;;;;;;;6.10;5.18;;;;;;;2.48;100.00;101967.09;6005980;23;20037;-75
2022/12/02 10:26:51;;;;;;;5.93;5.47;;;;;;;2.75;100.00;102003.41;6008394;23;20054;-74
2022/12/02 10:29:27;;;;;;;5.97;5.28;;;;;;;2.97;100.00;102019.00;6010274;23;20014;-76
2022/12/02 10:32:06;;;;;;;6.97;4.65;;;;;;;2.99;100.00;102025.06;6039610;23;20015;-74
2022/12/02 10:34:34;;;;;;;15.65;7.45;;;;;;;2.97;100.00;102026.78;6002576;23;20329;-75
2022/12/02 10:37:23;;;;;;;17.35;7.07;;;;;;;2.97;100.00;102017.25;6033034;23;20270;-74
2022/12/02 10:40:21;;;;;;;14.48;6.30;;;;;;;2.99;100.00;102015.53;6003732;23;20027;-74
2022/12/02 10:43:06;;;;;;;8.73;6.03;;;;;;;2.43;100.00;101919.59;6033624;23;20411;-74
2022/12/02 10:45:33;;;;;;;7.35;6.65;;;;;;;2.70;100.00;101976.59;6013642;23;20029;-73
2022/12/02 10:48:12;;;;;;;7.75;6.25;;;;;;;2.93;100.00;102012.09;6002564;23;20034;-74
2022/12/02 10:50:38;;;;;;;9.45;5.80;;;;;;;2.89;100.00;102005.16;5981859;23;20470;-74
2022/12/02 10:53:12;;;;;;;7.07;6.25;;;;;;;2.77;100.00;101999.09;6006182;23;20047;-74
2022/12/02 10:55:38;;;;;;;8.88;6.22;;;;;;;2.91;100.00;102013.81;5967994;23;20011;-74
2022/12/02 10:58:09;;;;;;;7.72;7.03;;;;;;;2.44;100.00;101937.72;6010685;23;20401;-74
2022/12/02 11:00:36;;;;;;;8.48;6.63;;;;;;;2.92;100.00;102002.56;5976799;23;20019;-74
2022/12/02 11:03:09;;;;;;;10.38;6.53;;;;;;;2.94;100.00;102000.84;6003553;23;20031;-74
2022/12/02 11:05:37;;;;;;;6.45;5.95;;;;;;;2.95;100.00;102007.75;5975361;23;20099;-73
2022/12/02 11:08:20;;;;;;;6.15;4.40;;;;;;;2.96;100.00;101999.09;6000927;23;20692;-74
2022/12/02 11:11:09;;;;;;;6.20;5.78;;;;;;;2.99;100.00;102004.31;5977440;23;20440;-74
2022/12/02 11:13:50;;;;;;;13.77;7.00;;;;;;;2.96;100.00;102002.56;5999970;23;20028;-75
2022/12/02 11:16:26;;;;;;;5.53;4.97;;;;;;;3.04;100.00;101996.50;5982224;23;20023;-75
2022/12/02 11:19:02;;;;;;;5.95;5.30;;;;;;;2.97;100.00;101993.94;5998222;23;20031;-73
2022/12/02 11:21:28;;;;;;;5.38;4.85;;;;;;;2.94;100.00;102003.41;5971696;23;20077;-74
2022/12/02 11:24:19;;;;;;;6.65;6.07;;;;;;;2.88;100.00;101999.09;6006477;23;20014;-74
2022/12/02 11:26:58;;;;;;;8.25;7.13;;;;;;;2.87;100.00;101994.78;5974370;23;20027;-74
2022/12/02 11:29:28;;;;;;;8.88;6.85;;;;;;;1.68;100.00;101798.63;5999630;23;20102;-74
2022/12/02 11:32:17;;;;;;;7.97;5.90;;;;;;;2.88;100.00;101993.91;5976191;23;20027;-74
2022/12/02 11:34:51;;;;;;;9.60;7.78;;;;;;;2.90;100.00;101999.97;6004093;23;20032;-74
2022/12/02 11:37:39;;;;;;;7.38;6.03;;;;;;;2.77;100.00;101973.16;5965481;24;20362;-74
2022/12/02 11:40:09;;;;;;;6.70;6.07;;;;;;;2.89;100.00;101993.06;6015197;23;20019;-72